createdAt,value
2022-09-24T00:01:35.819Z,10.27
2022-09-24T00:04:05.981Z,8.97
2022-09-24T00:06:45.741Z,8.40
2022-09-24T00:09:15.440Z,9.07
2022-09-24T00:11:46.081Z,9.63
2022-09-24T00:14:13.378Z,10.70
2022-09-24T00:16:41.620Z,8.00
2022-09-24T00:19:08.744Z,7.47
2022-09-24T00:21:37.558Z,7.93
2022-09-24T00:24:33.848Z,7.90
2022-09-24T00:27:03.179Z,12.17
2022-09-24T00:29:34.028Z,7.93
2022-09-24T00:32:02.316Z,11.57
2022-09-24T00:34:29.953Z,9.40
2022-09-24T00:36:56.909Z,11.00
2022-09-24T00:39:23.948Z,11.43
2022-09-24T00:41:50.978Z,9.13
2022-09-24T00:44:52.919Z,15.23
2022-09-24T00:47:42.126Z,11.07
2022-09-24T00:50:25.357Z,9.20
2022-09-24T00:52:58.458Z,7.30
2022-09-24T00:55:26.643Z,7.57
2022-09-24T00:57:57.900Z,8.10
2022-09-24T01:00:25.807Z,11.60
2022-09-24T01:03:01.638Z,6.93
2022-09-24T01:05:29.497Z,18.10
2022-09-24T01:07:56.841Z,8.23
2022-09-24T01:10:48.071Z,13.70
2022-09-24T01:13:49.704Z,8.13
2022-09-24T01:17:00.787Z,8.73
2022-09-24T01:20:11.272Z,17.33
2022-09-24T01:23:07.770Z,11.03
2022-09-24T01:26:19.582Z,7.63
2022-09-24T01:29:24.352Z,7.10
2022-09-24T01:32:00.332Z,9.67
2022-09-24T01:34:32.695Z,12.40
2022-09-24T01:37:01.175Z,7.60
2022-09-24T01:39:29.481Z,11.97
2022-09-24T01:41:57.426Z,8.37
2022-09-24T01:44:25.266Z,13.60
2022-09-24T01:46:52.690Z,10.07
2022-09-24T01:49:19.684Z,8.97
2022-09-24T01:51:58.358Z,8.80
2022-09-24T01:54:50.326Z,10.83
2022-09-24T01:57:30.158Z,14.73
2022-09-24T02:00:06.115Z,8.70
2022-09-24T02:02:45.495Z,12.70
2022-09-24T02:05:34.448Z,10.17
2022-09-24T02:08:17.280Z,8.90
2022-09-24T02:11:14.838Z,10.30
2022-09-24T02:14:08.602Z,10.07
2022-09-24T02:16:49.075Z,12.47
2022-09-24T02:19:20.267Z,9.00
2022-09-24T02:21:47.477Z,13.70
2022-09-24T02:24:29.266Z,11.53
2022-09-24T02:26:56.256Z,11.20
2022-09-24T02:29:23.291Z,13.77
2022-09-24T02:31:54.403Z,18.43
2022-09-24T02:34:31.733Z,15.17
2022-09-24T02:37:03.342Z,13.87
2022-09-24T02:39:30.195Z,12.90
2022-09-24T02:41:58.344Z,12.40
2022-09-24T02:44:25.192Z,17.67
2022-09-24T02:46:52.080Z,15.17
2022-09-24T02:49:19.120Z,20.00
2022-09-24T02:51:45.991Z,26.30
2022-09-24T02:54:12.998Z,23.30
2022-09-24T02:56:40.306Z,15.13
2022-09-24T02:59:07.901Z,19.97
2022-09-24T03:01:35.701Z,26.60
2022-09-24T03:04:02.896Z,17.23
2022-09-24T03:06:30.586Z,22.93
2022-09-24T03:08:58.054Z,25.70
2022-09-24T03:11:25.083Z,20.20
2022-09-24T03:13:52.225Z,25.33
2022-09-24T03:16:19.475Z,18.67
2022-09-24T03:18:49.607Z,18.47
2022-09-24T03:21:19.246Z,18.63
2022-09-24T03:23:46.563Z,25.50
2022-09-24T03:26:14.339Z,21.30
2022-09-24T03:28:41.304Z,23.27
2022-09-24T03:31:08.932Z,23.43
2022-09-24T03:33:40.293Z,25.63
2022-09-24T03:36:22.795Z,23.33
2022-09-24T03:38:52.283Z,23.50
2022-09-24T03:41:19.199Z,19.47
2022-09-24T03:43:46.081Z,18.93
2022-09-24T03:46:14.033Z,30.73
2022-09-24T03:48:41.442Z,20.63
2022-09-24T03:51:19.302Z,27.23
2022-09-24T03:53:46.962Z,23.77
2022-09-24T03:56:14.055Z,24.50
2022-09-24T03:58:42.004Z,25.50
2022-09-24T04:01:13.043Z,23.70
2022-09-24T04:03:40.900Z,25.97
2022-09-24T04:06:08.104Z,24.37
2022-09-24T04:08:35.044Z,27.10
2022-09-24T04:11:01.958Z,28.80
2022-09-24T04:13:28.921Z,28.73
2022-09-24T04:15:56.304Z,34.23
2022-09-24T04:18:23.257Z,38.70
2022-09-24T04:20:50.173Z,33.47
2022-09-24T04:23:17.113Z,34.27
2022-09-24T04:25:44.220Z,32.90
2022-09-24T04:28:12.155Z,32.83
2022-09-24T04:30:39.727Z,32.43
2022-09-24T04:33:07.601Z,37.67
2022-09-24T04:35:38.466Z,32.87
2022-09-24T04:38:06.619Z,36.63
2022-09-24T04:40:33.863Z,36.30
2022-09-24T04:43:01.215Z,37.67
2022-09-24T04:45:28.117Z,41.70
2022-09-24T04:47:57.994Z,34.90
2022-09-24T04:50:26.811Z,41.10
2022-09-24T04:52:56.114Z,40.10
2022-09-24T04:55:24.726Z,42.23
2022-09-24T04:57:52.007Z,42.10
2022-09-24T05:00:21.073Z,40.63
2022-09-24T05:02:48.523Z,40.80
2022-09-24T05:05:15.733Z,36.90
2022-09-24T05:07:44.651Z,40.60
2022-09-24T05:10:11.635Z,39.20
2022-09-24T05:12:40.941Z,42.53
2022-09-24T05:15:08.609Z,36.10
2022-09-24T05:17:39.714Z,36.37
2022-09-24T05:20:08.150Z,38.43
2022-09-24T05:22:36.670Z,45.50
2022-09-24T05:25:03.994Z,38.60
2022-09-24T05:27:30.863Z,43.40
2022-09-24T05:29:57.754Z,40.73
2022-09-24T05:32:25.123Z,41.50
2022-09-24T05:34:52.466Z,44.47
2022-09-24T05:37:19.787Z,50.63
2022-09-24T05:39:46.713Z,40.87
2022-09-24T05:42:14.441Z,47.30
2022-09-24T05:44:43.029Z,35.60
2022-09-24T05:47:10.262Z,37.63
2022-09-24T05:49:38.546Z,38.70
2022-09-24T05:52:06.243Z,40.23
2022-09-24T05:54:33.297Z,41.40
2022-09-24T05:57:00.222Z,42.17
2022-09-24T05:59:27.143Z,38.10
2022-09-24T06:01:54.603Z,35.63
2022-09-24T06:04:21.593Z,39.97
2022-09-24T06:06:48.563Z,37.90
2022-09-24T06:09:15.471Z,39.77
2022-09-24T06:11:42.736Z,37.70
2022-09-24T06:14:09.903Z,38.77
2022-09-24T06:16:37.046Z,36.17
2022-09-24T06:19:04.159Z,43.23
2022-09-24T06:21:31.002Z,41.87
2022-09-24T06:23:57.887Z,39.50
2022-09-24T06:26:26.488Z,42.27
2022-09-24T06:28:53.468Z,34.90
2022-09-24T06:31:20.718Z,34.67
2022-09-24T06:33:47.735Z,49.03
2022-09-24T06:36:14.833Z,32.63
2022-09-24T06:38:41.957Z,31.87
2022-09-24T06:41:09.700Z,35.07
2022-09-24T06:43:36.892Z,31.30
2022-09-24T06:46:05.042Z,31.97
2022-09-24T06:48:32.857Z,30.33
2022-09-24T06:50:59.981Z,30.20
2022-09-24T06:53:26.859Z,37.93
2022-09-24T06:55:59.816Z,38.17
2022-09-24T06:58:27.205Z,29.70
2022-09-24T07:00:59.643Z,28.93
2022-09-24T07:03:32.074Z,31.30
2022-09-24T07:06:04.546Z,33.50
2022-09-24T07:08:31.697Z,27.97
2022-09-24T07:10:58.641Z,43.73
2022-09-24T07:13:25.523Z,25.57
2022-09-24T07:15:54.214Z,32.33
2022-09-24T07:18:21.522Z,25.27
2022-09-24T07:20:53.077Z,28.93
2022-09-24T07:23:20.391Z,29.70
2022-09-24T07:25:47.892Z,37.57
2022-09-24T07:28:19.780Z,35.03
2022-09-24T07:30:46.731Z,31.80
2022-09-24T07:33:13.719Z,27.33
2022-09-24T07:35:40.656Z,29.60
2022-09-24T07:38:12.408Z,31.73
2022-09-24T07:40:39.737Z,25.80
2022-09-24T07:43:12.904Z,25.73
2022-09-24T07:45:39.874Z,25.87
2022-09-24T07:48:08.404Z,25.73
2022-09-24T07:50:39.923Z,25.63
2022-09-24T07:53:09.682Z,29.97
2022-09-24T07:55:41.197Z,27.40
2022-09-24T07:58:14.997Z,24.57
2022-09-24T08:00:42.878Z,33.03
2022-09-24T08:03:09.923Z,22.80
2022-09-24T08:05:45.695Z,28.37
2022-09-24T08:08:15.339Z,38.50
2022-09-24T08:10:43.234Z,27.50
2022-09-24T08:13:10.210Z,34.23
2022-09-24T08:15:37.169Z,30.23
2022-09-24T08:18:05.319Z,33.50
2022-09-24T08:20:33.357Z,29.33
2022-09-24T08:23:12.774Z,26.20
2022-09-24T08:25:39.758Z,32.37
2022-09-24T08:28:07.823Z,26.33
2022-09-24T08:30:35.633Z,29.07
2022-09-24T08:33:06.783Z,23.30
2022-09-24T08:35:37.006Z,27.80
2022-09-24T08:38:03.904Z,25.40
2022-09-24T08:40:39.628Z,23.20
2022-09-24T08:43:33.083Z,27.67
2022-09-24T08:46:22.420Z,23.23
2022-09-24T08:48:53.256Z,31.43
2022-09-24T08:51:22.370Z,27.13
2022-09-24T08:54:14.669Z,23.57
2022-09-24T08:56:45.493Z,21.97
2022-09-24T08:59:33.897Z,23.80
2022-09-24T09:02:39.197Z,34.47
2022-09-24T09:05:31.145Z,21.90
2022-09-24T09:08:27.355Z,29.80
2022-09-24T09:11:00.549Z,23.27
2022-09-24T09:13:39.841Z,23.90
2022-09-24T09:16:51.441Z,30.20
2022-09-24T09:19:23.328Z,24.60
2022-09-24T09:22:13.670Z,17.97
2022-09-24T09:24:46.562Z,26.53
2022-09-24T09:27:15.447Z,24.80
2022-09-24T09:29:56.570Z,21.63
2022-09-24T09:32:44.147Z,22.00
2022-09-24T09:35:41.630Z,18.10
2022-09-24T09:38:36.267Z,22.90
2022-09-24T09:41:24.138Z,21.07
2022-09-24T09:43:59.491Z,18.53
2022-09-24T09:46:34.595Z,17.90
2022-09-24T09:49:06.275Z,24.70
2022-09-24T09:51:38.709Z,17.80
2022-09-24T09:54:08.800Z,26.63
2022-09-24T09:56:42.190Z,14.27
2022-09-24T09:59:29.907Z,21.70
2022-09-24T10:01:57.755Z,18.33
2022-09-24T10:04:39.692Z,17.43
2022-09-24T10:07:15.265Z,17.37
2022-09-24T10:09:43.697Z,15.97
2022-09-24T10:12:24.394Z,23.93
2022-09-24T10:15:15.886Z,23.30
2022-09-24T10:17:44.164Z,22.43
2022-09-24T10:20:33.380Z,22.63
2022-09-24T10:23:03.704Z,25.20
2022-09-24T10:25:32.286Z,23.10
2022-09-24T10:28:20.373Z,23.97
2022-09-24T10:31:03.873Z,22.20
2022-09-24T10:33:42.723Z,22.73
2022-09-24T10:36:25.820Z,22.83
2022-09-24T10:39:28.371Z,21.00
2022-09-24T10:41:57.189Z,28.63
2022-09-24T10:44:28.401Z,26.07
2022-09-24T10:47:15.457Z,18.67
2022-09-24T10:50:26.168Z,20.50
2022-09-24T10:53:14.753Z,21.93
2022-09-24T10:59:52.002Z,17.57
2022-09-24T11:02:46.578Z,19.20
2022-09-24T11:05:31.697Z,21.90
2022-09-24T11:08:17.531Z,17.03
2022-09-24T11:11:14.438Z,21.63
2022-09-24T11:14:25.077Z,17.83
2022-09-24T11:17:19.030Z,17.57
2022-09-24T11:20:25.505Z,18.43
2022-09-24T11:23:23.827Z,17.10
2022-09-24T11:26:46.090Z,22.30
2022-09-24T11:30:09.782Z,16.17
2022-09-24T11:33:29.514Z,14.57
2022-09-24T11:36:16.180Z,16.73
2022-09-24T11:42:33.538Z,17.10
2022-09-24T11:48:41.433Z,24.70
2022-09-24T11:51:54.921Z,18.30
2022-09-24T11:54:24.481Z,17.93
2022-09-24T11:57:30.247Z,18.33
2022-09-24T12:03:01.376Z,22.87
2022-09-24T12:06:01.352Z,21.20
2022-09-24T12:08:54.423Z,23.00
2022-09-24T12:11:33.317Z,40.03
2022-09-24T12:14:31.963Z,19.27
2022-09-24T12:17:07.036Z,19.30
2022-09-24T12:19:47.350Z,16.40
2022-09-24T12:22:17.063Z,18.30
2022-09-24T12:24:49.959Z,17.50
2022-09-24T12:27:43.919Z,15.07
2022-09-24T12:31:03.095Z,23.27
2022-09-24T12:33:41.974Z,17.90
2022-09-24T12:36:37.764Z,16.73
2022-09-24T12:39:10.076Z,16.30
2022-09-24T12:41:45.516Z,19.83
2022-09-24T12:44:22.918Z,13.43
2022-09-24T12:46:55.494Z,15.50
2022-09-24T12:49:36.199Z,15.57
2022-09-24T12:52:25.011Z,18.50
2022-09-24T12:54:59.781Z,15.43
2022-09-24T12:57:40.326Z,14.67
2022-09-24T13:00:53.792Z,12.40
2022-09-24T13:03:43.278Z,17.10
2022-09-24T13:06:35.470Z,12.10
2022-09-24T13:09:04.663Z,13.17
2022-09-24T13:11:38.216Z,12.73
2022-09-24T13:14:20.406Z,18.37
2022-09-24T13:16:50.702Z,15.40
2022-09-24T13:19:45.027Z,17.97
2022-09-24T13:22:41.501Z,17.73
2022-09-24T13:25:28.826Z,16.63
2022-09-24T13:28:01.792Z,17.23
2022-09-24T13:30:40.557Z,16.63
2022-09-24T13:33:29.611Z,16.50
2022-09-24T13:36:06.898Z,23.70
2022-09-24T13:38:54.957Z,20.10
2022-09-24T13:41:38.688Z,20.50
2022-09-24T13:44:46.415Z,20.23
2022-09-24T13:47:43.697Z,31.37
2022-09-24T13:50:37.948Z,18.53
2022-09-24T13:53:13.860Z,21.80
2022-09-24T13:55:47.126Z,24.00
2022-09-24T13:58:38.735Z,19.90
2022-09-24T14:01:30.308Z,16.47
2022-09-24T14:04:01.159Z,22.53
2022-09-24T14:06:37.934Z,22.97
2022-09-24T14:09:37.476Z,20.43
2022-09-24T14:12:16.253Z,24.30
2022-09-24T14:14:48.166Z,25.20
2022-09-24T14:17:15.922Z,21.87
2022-09-24T14:19:43.186Z,26.67
2022-09-24T14:22:20.762Z,26.03
2022-09-24T14:25:02.109Z,32.30
2022-09-24T14:27:31.973Z,22.97
2022-09-24T14:30:02.770Z,24.57
2022-09-24T14:32:37.745Z,26.93
2022-09-24T14:35:18.757Z,25.97
2022-09-24T14:38:01.007Z,24.37
2022-09-24T14:40:29.007Z,19.97
2022-09-24T14:43:02.964Z,20.60
2022-09-24T14:45:37.928Z,23.30
2022-09-24T14:48:06.357Z,24.80
2022-09-24T14:50:40.914Z,25.67
2022-09-24T14:53:33.183Z,23.23
2022-09-24T14:56:00.802Z,22.97
2022-09-24T14:58:36.785Z,30.10
2022-09-24T15:01:14.826Z,21.83
2022-09-24T15:03:54.615Z,29.33
2022-09-24T15:06:30.475Z,28.13
2022-09-24T15:09:16.679Z,27.27
2022-09-24T15:11:44.026Z,23.17
2022-09-24T15:14:27.629Z,27.20
2022-09-24T15:16:55.552Z,22.83
2022-09-24T15:19:29.029Z,25.83
2022-09-24T15:21:57.417Z,26.20
2022-09-24T15:24:25.259Z,26.73
2022-09-24T15:27:24.150Z,28.57
2022-09-24T15:29:51.445Z,21.13
2022-09-24T15:32:19.922Z,23.57
2022-09-24T15:34:47.483Z,24.70
2022-09-24T15:37:20.247Z,23.30
2022-09-24T15:39:49.447Z,23.50
2022-09-24T15:42:19.514Z,23.80
2022-09-24T15:44:47.596Z,24.30
2022-09-24T15:47:14.901Z,19.00
2022-09-24T15:49:42.458Z,26.40
2022-09-24T15:52:26.749Z,22.70
2022-09-24T15:54:56.121Z,22.83
2022-09-24T15:57:23.447Z,22.27
2022-09-24T15:59:50.912Z,21.87
2022-09-24T16:02:23.850Z,23.77
2022-09-24T16:04:51.208Z,31.27
2022-09-24T16:07:19.599Z,25.30
2022-09-24T16:09:46.520Z,21.13
2022-09-24T16:12:18.537Z,26.47
2022-09-24T16:14:45.884Z,29.10
2022-09-24T16:17:13.059Z,25.83
2022-09-24T16:19:40.009Z,26.60
2022-09-24T16:22:07.162Z,33.60
2022-09-24T16:24:34.989Z,27.10
2022-09-24T16:27:02.488Z,27.10
2022-09-24T16:29:29.409Z,27.30
2022-09-24T16:31:56.684Z,29.10
2022-09-24T16:34:23.633Z,32.13
2022-09-24T16:36:53.671Z,29.00
2022-09-24T16:39:20.777Z,26.30
2022-09-24T16:41:51.601Z,33.43
2022-09-24T16:44:18.551Z,31.93
2022-09-24T16:46:45.722Z,32.37
2022-09-24T16:49:12.989Z,27.37
2022-09-24T16:51:40.402Z,28.27
2022-09-24T16:54:07.537Z,28.23
2022-09-24T16:56:34.782Z,25.80
2022-09-24T16:59:01.743Z,29.30
2022-09-24T17:01:28.802Z,28.80
2022-09-24T17:03:57.476Z,46.67
2022-09-24T17:06:30.303Z,30.63
2022-09-24T17:09:16.659Z,32.47
2022-09-24T17:11:45.199Z,39.63
2022-09-24T17:14:12.533Z,30.90
2022-09-24T17:16:43.635Z,83.67
2022-09-24T17:19:11.883Z,81.50
2022-09-24T17:21:41.867Z,48.53
2022-09-24T17:24:09.823Z,40.50
2022-09-24T17:26:38.091Z,43.70
2022-09-24T17:29:05.460Z,43.67
2022-09-24T17:31:32.769Z,44.23
2022-09-24T17:34:09.466Z,42.83
2022-09-24T17:36:37.503Z,39.63
2022-09-24T17:39:06.080Z,43.27
2022-09-24T17:41:33.648Z,37.97
2022-09-24T17:44:01.164Z,41.40
2022-09-24T17:46:32.874Z,43.43
2022-09-24T17:49:00.624Z,38.50
2022-09-24T17:51:33.414Z,40.80
2022-09-24T17:54:02.974Z,33.67
2022-09-24T17:56:32.370Z,38.70
2022-09-24T17:59:00.154Z,33.90
2022-09-24T18:01:33.558Z,45.83
2022-09-24T18:04:00.874Z,49.47
2022-09-24T18:06:32.852Z,29.07
2022-09-24T18:09:01.510Z,31.10
2022-09-24T18:11:31.541Z,24.23
2022-09-24T18:14:00.570Z,22.27
2022-09-24T18:16:30.975Z,27.00
2022-09-24T18:19:00.924Z,30.93
2022-09-24T18:21:29.714Z,22.93
2022-09-24T18:23:58.380Z,26.53
2022-09-24T18:26:34.332Z,20.23
2022-09-24T18:29:15.736Z,20.50
2022-09-24T18:31:43.850Z,20.90
2022-09-24T18:34:14.135Z,18.43
2022-09-24T18:36:42.926Z,23.57
2022-09-24T18:39:13.635Z,29.63
2022-09-24T18:41:42.045Z,23.97
2022-09-24T18:44:09.744Z,21.83
2022-09-24T18:46:37.132Z,17.43
2022-09-24T18:49:06.926Z,21.93
2022-09-24T18:51:39.722Z,21.90
2022-09-24T18:54:14.414Z,23.20
2022-09-24T18:56:41.580Z,22.10
2022-09-24T18:59:13.311Z,23.67
2022-09-24T19:01:41.994Z,24.43
2022-09-24T19:04:11.091Z,22.80
2022-09-24T19:06:41.624Z,28.13
2022-09-24T19:09:10.411Z,25.50
2022-09-24T19:11:38.167Z,22.73
2022-09-24T19:14:05.290Z,22.60
2022-09-24T19:16:32.992Z,23.70
2022-09-24T19:19:01.924Z,23.10
2022-09-24T19:21:29.628Z,28.37
2022-09-24T19:23:59.010Z,24.47
2022-09-24T19:26:29.147Z,24.77
2022-09-24T19:28:56.688Z,24.83
2022-09-24T19:31:27.094Z,22.87
2022-09-24T19:33:54.611Z,22.47
2022-09-24T19:36:22.755Z,23.33
2022-09-24T19:38:51.662Z,22.57
2022-09-24T19:41:27.146Z,24.20
2022-09-24T19:43:57.272Z,22.80
2022-09-24T19:46:25.737Z,28.87
2022-09-24T19:48:55.139Z,26.37
2022-09-24T19:51:29.051Z,26.83
2022-09-24T19:54:07.742Z,27.90
2022-09-24T19:56:36.185Z,40.03
2022-09-24T19:59:04.268Z,26.33
2022-09-24T20:01:33.399Z,31.33
2022-09-24T20:04:03.934Z,31.67
2022-09-24T20:06:33.900Z,39.30
2022-09-24T20:09:01.195Z,31.30
2022-09-24T20:11:29.513Z,36.20
2022-09-24T20:13:57.409Z,30.33
2022-09-24T20:16:26.879Z,31.40
2022-09-24T20:19:00.499Z,31.77
2022-09-24T20:21:35.011Z,31.13
2022-09-24T20:24:03.986Z,26.90
2022-09-24T20:26:50.392Z,29.23
2022-09-24T20:29:19.812Z,28.50
2022-09-24T20:31:52.194Z,28.03
2022-09-24T20:34:21.490Z,31.17
2022-09-24T20:36:48.870Z,34.93
2022-09-24T20:39:16.115Z,26.43
2022-09-24T20:41:46.787Z,29.93
2022-09-24T20:44:13.946Z,31.63
2022-09-24T20:46:40.997Z,27.43
2022-09-24T20:49:08.017Z,32.53
2022-09-24T20:51:34.929Z,29.20
2022-09-24T20:54:02.186Z,28.87
2022-09-24T20:56:30.869Z,29.63
2022-09-24T20:58:58.836Z,27.13
2022-09-24T21:01:26.131Z,29.07
2022-09-24T21:03:53.283Z,25.97
2022-09-24T21:06:23.748Z,24.57
2022-09-24T21:08:51.752Z,29.87
2022-09-24T21:11:26.857Z,38.43
2022-09-24T21:13:56.359Z,32.43
2022-09-24T21:16:25.907Z,26.07
2022-09-24T21:18:54.656Z,27.93
2022-09-24T21:21:29.891Z,25.37
2022-09-24T21:23:59.194Z,23.17
2022-09-24T21:26:28.834Z,25.70
2022-09-24T21:29:07.704Z,26.00
2022-09-24T21:31:35.849Z,26.57
2022-09-24T21:34:03.864Z,23.03
2022-09-24T21:36:32.745Z,27.00
2022-09-24T21:39:02.257Z,24.80
2022-09-24T21:41:34.625Z,24.27
2022-09-24T21:44:02.177Z,24.70
2022-09-24T21:46:31.489Z,25.13
2022-09-24T21:48:59.524Z,24.17
2022-09-24T21:51:27.599Z,26.00
2022-09-24T21:53:58.425Z,24.03
2022-09-24T21:56:26.859Z,28.50
2022-09-24T21:58:54.006Z,26.07
2022-09-24T22:01:29.922Z,26.97
2022-09-24T22:04:07.516Z,25.17
2022-09-24T22:06:35.103Z,27.13
2022-09-24T22:09:06.880Z,22.23
2022-09-24T22:11:34.657Z,22.90
2022-09-24T22:14:02.472Z,24.70
2022-09-24T22:16:35.025Z,24.03
2022-09-24T22:19:06.725Z,22.93
2022-09-24T22:21:34.318Z,26.77
2022-09-24T22:24:01.609Z,25.40
2022-09-24T22:26:31.992Z,22.50
2022-09-24T22:28:59.497Z,23.03
2022-09-24T22:31:27.234Z,24.90
2022-09-24T22:34:13.015Z,21.90
2022-09-24T22:36:40.726Z,25.10
2022-09-24T22:39:08.606Z,26.27
2022-09-24T22:41:38.602Z,29.30
2022-09-24T22:44:07.124Z,26.00
2022-09-24T22:46:36.618Z,32.53
2022-09-24T22:49:05.032Z,28.97
2022-09-24T22:51:32.078Z,30.13
2022-09-24T22:54:00.606Z,30.00
2022-09-24T22:56:28.719Z,25.77
2022-09-24T22:59:00.507Z,27.20
2022-09-24T23:01:35.609Z,31.60
2022-09-24T23:04:03.487Z,26.77
2022-09-24T23:06:33.174Z,31.37
2022-09-24T23:09:01.131Z,28.00
2022-09-24T23:11:31.380Z,27.57
2022-09-24T23:14:02.536Z,32.03
2022-09-24T23:16:32.931Z,37.13
2022-09-24T23:19:01.601Z,33.80
2022-09-24T23:21:32.082Z,32.23
2022-09-24T23:24:04.663Z,34.50
2022-09-24T23:26:31.975Z,34.97
2022-09-24T23:29:00.851Z,35.60
2022-09-24T23:31:34.438Z,29.90
2022-09-24T23:34:02.045Z,29.77
2022-09-24T23:36:31.361Z,35.20
2022-09-24T23:38:59.792Z,38.40
2022-09-24T23:41:29.088Z,33.50
2022-09-24T23:43:57.061Z,36.73
2022-09-24T23:46:24.371Z,39.23
2022-09-24T23:48:52.134Z,32.23
2022-09-24T23:51:19.268Z,37.50
2022-09-24T23:53:46.482Z,32.23
2022-09-24T23:56:13.762Z,39.10
2022-09-24T23:58:42.278Z,34.10
